createdAt,value
2023-07-03T00:01:06.888Z,99532.67
2023-07-03T00:04:17.363Z,99526.02
2023-07-03T00:07:24.072Z,99528.28
2023-07-03T00:10:30.245Z,99528.50
2023-07-03T00:13:36.858Z,99531.66
2023-07-03T00:16:42.358Z,99529.09
2023-07-03T00:19:42.112Z,99527.36
2023-07-03T00:22:28.565Z,99533.70
2023-07-03T00:25:20.784Z,99528.41
2023-07-03T00:28:13.717Z,99529.73
2023-07-03T00:31:19.888Z,99529.90
2023-07-03T00:34:26.576Z,99526.91
2023-07-03T00:37:35.058Z,99533.91
2023-07-03T00:40:41.315Z,99536.09
2023-07-03T00:43:48.708Z,99530.77
2023-07-03T00:46:57.197Z,99535.30
2023-07-03T00:50:05.067Z,99536.02
2023-07-03T00:53:18.218Z,99533.45
2023-07-03T00:56:24.906Z,99534.70
2023-07-03T00:59:30.448Z,99537.28
2023-07-03T01:02:55.096Z,99540.47
2023-07-03T01:06:03.653Z,99539.33
2023-07-03T01:09:12.633Z,99539.51
2023-07-03T01:12:19.581Z,99535.09
2023-07-03T01:15:27.323Z,99532.86
2023-07-03T01:18:33.103Z,99539.95
2023-07-03T01:21:45.296Z,99538.41
2023-07-03T01:25:03.541Z,99535.31
2023-07-03T01:28:11.009Z,99535.50
2023-07-03T01:31:09.960Z,99539.45
2023-07-03T01:34:08.602Z,99546.03
2023-07-03T01:37:14.720Z,99546.23
2023-07-03T01:40:23.987Z,99548.66
2023-07-03T01:43:29.120Z,99546.86
2023-07-03T01:46:36.536Z,99547.55
2023-07-03T01:49:42.653Z,99549.73
2023-07-03T01:52:58.963Z,99548.38
2023-07-03T01:56:12.479Z,99548.22
2023-07-03T01:59:25.838Z,99548.38
2023-07-03T02:02:33.487Z,99547.75
2023-07-03T02:05:41.595Z,99544.55
2023-07-03T02:08:48.119Z,99550.84
2023-07-03T02:11:54.819Z,99545.83
2023-07-03T02:15:01.656Z,99551.70
2023-07-03T02:18:07.124Z,99557.19
2023-07-03T02:21:16.567Z,99561.28
2023-07-03T02:24:21.794Z,99559.66
2023-07-03T02:27:27.988Z,99561.98
2023-07-03T02:30:34.613Z,99564.80
2023-07-03T02:33:40.816Z,99570.92
2023-07-03T02:36:52.759Z,99575.84
2023-07-03T02:40:00.440Z,99586.70
2023-07-03T02:43:08.902Z,99578.47
2023-07-03T02:46:21.165Z,99584.06
2023-07-03T02:49:27.494Z,99584.33
2023-07-03T02:52:33.630Z,99591.32
2023-07-03T02:55:39.831Z,99593.55
2023-07-03T02:58:46.492Z,99593.83
2023-07-03T03:01:56.079Z,99589.39
2023-07-03T03:05:01.930Z,99590.41
2023-07-03T03:08:09.671Z,99594.38
2023-07-03T03:11:15.189Z,99592.80
2023-07-03T03:14:22.280Z,99595.80
2023-07-03T03:17:29.002Z,99597.47
2023-07-03T03:20:35.007Z,99599.78
2023-07-03T03:23:40.603Z,99602.16
2023-07-03T03:26:40.164Z,99602.57
2023-07-03T03:29:38.555Z,99611.70
2023-07-03T03:32:44.758Z,99606.09
2023-07-03T03:35:50.618Z,99608.06
2023-07-03T03:38:56.084Z,99607.50
2023-07-03T03:42:02.539Z,99608.66
2023-07-03T03:45:08.098Z,99608.58
2023-07-03T03:48:13.617Z,99613.46
2023-07-03T03:51:12.275Z,99611.42
2023-07-03T03:54:05.137Z,99617.59
2023-07-03T03:57:04.638Z,99621.66
2023-07-03T04:00:11.690Z,99613.48
2023-07-03T04:03:19.649Z,99614.58
2023-07-03T04:06:26.220Z,99618.22
2023-07-03T04:09:32.315Z,99622.39
2023-07-03T04:12:36.995Z,99632.17
2023-07-03T04:15:45.439Z,99623.45
2023-07-03T04:18:51.807Z,99623.36
2023-07-03T04:21:56.583Z,99627.30
2023-07-03T04:25:02.704Z,99628.82
2023-07-03T04:28:08.514Z,99626.61
2023-07-03T04:31:14.679Z,99627.16
2023-07-03T04:34:20.053Z,99632.27
2023-07-03T04:37:25.482Z,99628.77
2023-07-03T04:40:31.942Z,99632.41
2023-07-03T04:43:37.818Z,99634.98
2023-07-03T04:46:46.307Z,99638.94
2023-07-03T04:49:44.806Z,99637.69
2023-07-03T04:52:31.067Z,99636.51
2023-07-03T04:55:24.697Z,99644.11
2023-07-03T04:58:11.414Z,99643.43
2023-07-03T05:01:03.278Z,99640.09
2023-07-03T05:03:49.257Z,99641.50
2023-07-03T05:06:41.483Z,99643.37
2023-07-03T05:09:27.323Z,99650.52
2023-07-03T05:12:20.405Z,99648.69
2023-07-03T05:15:07.550Z,99645.14
2023-07-03T05:18:03.223Z,99648.36
2023-07-03T05:20:48.587Z,99647.26
2023-07-03T05:23:41.531Z,99650.04
2023-07-03T05:26:35.240Z,99644.39
2023-07-03T05:29:40.845Z,99644.66
2023-07-03T05:32:46.279Z,99644.66
2023-07-03T05:35:54.544Z,99644.97
2023-07-03T05:38:58.776Z,99640.98
2023-07-03T05:42:04.590Z,99640.73
2023-07-03T05:45:10.073Z,99639.81
2023-07-03T05:48:15.267Z,99638.76
2023-07-03T05:51:20.989Z,99634.19
2023-07-03T05:54:28.933Z,99639.50
2023-07-03T05:57:34.167Z,99646.59
2023-07-03T06:00:42.175Z,99640.56
2023-07-03T06:03:50.725Z,99644.09
2023-07-03T06:06:56.754Z,99648.48
2023-07-03T06:13:01.007Z,99646.28
2023-07-03T06:16:06.394Z,99653.59
2023-07-03T06:19:11.651Z,99647.39
2023-07-03T06:22:18.598Z,99649.41
2023-07-03T06:25:24.802Z,99647.88
2023-07-03T06:28:31.467Z,99646.80
2023-07-03T06:31:37.244Z,99649.22
2023-07-03T06:34:43.288Z,99646.74
2023-07-03T06:37:49.265Z,99651.37
2023-07-03T06:40:54.144Z,99652.98
2023-07-03T06:44:00.237Z,99649.43
2023-07-03T06:47:06.366Z,99661.06
2023-07-03T06:50:12.458Z,99668.89
2023-07-03T06:53:18.461Z,99667.00
2023-07-03T06:56:23.620Z,99666.45
2023-07-03T06:59:30.202Z,99668.09
2023-07-03T07:02:34.972Z,99665.87
2023-07-03T07:05:42.882Z,99664.47
2023-07-03T07:08:49.207Z,99671.13
2023-07-03T07:11:56.597Z,99670.84
2023-07-03T07:15:02.436Z,99669.67
2023-07-03T07:18:08.460Z,99677.45
2023-07-03T07:21:15.491Z,99678.45
2023-07-03T07:24:38.578Z,99671.78
2023-07-03T07:27:43.356Z,99671.24
2023-07-03T07:30:52.803Z,99675.05
2023-07-03T07:33:59.935Z,99683.23
2023-07-03T07:37:05.602Z,99685.41
2023-07-03T07:40:11.313Z,99680.52
2023-07-03T07:43:17.800Z,99680.13
2023-07-03T07:46:23.314Z,99676.75
2023-07-03T07:49:29.264Z,99677.33
2023-07-03T07:52:37.193Z,99680.66
2023-07-03T07:55:42.649Z,99685.98
2023-07-03T07:58:49.164Z,99684.22
2023-07-03T08:01:57.558Z,99685.84
2023-07-03T08:05:03.524Z,99684.69
2023-07-03T08:08:08.812Z,99685.17
2023-07-03T08:11:20.681Z,99681.77
2023-07-03T08:14:27.521Z,99682.70
2023-07-03T08:17:33.012Z,99685.00
2023-07-03T08:20:38.535Z,99685.69
2023-07-03T08:23:45.606Z,99683.63
2023-07-03T08:26:53.044Z,99687.22
2023-07-03T08:30:00.373Z,99691.58
2023-07-03T08:33:06.870Z,99691.50
2023-07-03T08:39:21.833Z,99685.95
2023-07-03T08:42:39.425Z,99682.30
2023-07-03T08:45:58.160Z,99689.03
2023-07-03T08:49:04.206Z,99687.52
2023-07-03T08:52:11.116Z,99697.41
2023-07-03T08:55:16.830Z,99689.84
2023-07-03T08:58:25.398Z,99693.14
2023-07-03T09:01:46.976Z,99690.69
2023-07-03T09:05:38.808Z,99694.94
2023-07-03T09:08:50.299Z,99693.97
2023-07-03T09:11:54.693Z,99689.16
2023-07-03T09:14:51.865Z,99684.45
2023-07-03T09:17:58.296Z,99687.14
2023-07-03T09:21:04.938Z,99695.25
2023-07-03T09:24:28.861Z,99692.73
2023-07-03T09:27:40.392Z,99698.56
2023-07-03T09:30:45.335Z,99698.25
2023-07-03T09:33:51.596Z,99697.42
2023-07-03T09:37:00.009Z,99701.14
2023-07-03T09:40:12.481Z,99704.16
2023-07-03T09:43:18.143Z,99697.80
2023-07-03T09:46:28.940Z,99692.52
2023-07-03T09:49:40.543Z,99688.45
2023-07-03T09:52:59.350Z,99693.82
2023-07-03T09:55:53.995Z,99694.84
2023-07-03T09:59:03.185Z,99685.67
2023-07-03T10:08:33.728Z,99693.20
2023-07-03T10:11:46.145Z,99699.65
2023-07-03T10:15:08.104Z,99700.15
2023-07-03T10:18:29.485Z,99698.13
2023-07-03T10:21:36.317Z,99690.80
2023-07-03T10:24:43.840Z,99693.91
2023-07-03T10:27:51.845Z,99693.80
2023-07-03T10:30:58.166Z,99696.14
2023-07-03T10:34:06.698Z,99695.80
2023-07-03T10:37:15.558Z,99688.81
2023-07-03T10:40:25.738Z,99699.39
2023-07-03T10:43:30.465Z,99693.12
2023-07-03T10:46:44.250Z,99687.33
2023-07-03T10:49:50.958Z,99687.57
2023-07-03T10:53:17.520Z,99693.00
2023-07-03T10:56:36.693Z,99690.63
2023-07-03T10:59:47.880Z,99688.03
2023-07-03T11:03:12.677Z,99679.15
2023-07-03T11:06:27.661Z,99682.67
2023-07-03T11:09:43.968Z,99681.15
2023-07-03T11:13:04.980Z,99674.73
2023-07-03T11:16:26.213Z,99669.52
2023-07-03T11:20:17.183Z,99663.84
2023-07-03T11:23:43.142Z,99668.91
2023-07-03T11:30:15.238Z,99679.91
2023-07-03T11:33:21.784Z,99666.22
2023-07-03T11:40:01.136Z,99674.98
2023-07-03T11:43:26.543Z,99674.91
2023-07-03T11:46:38.014Z,99666.67
2023-07-03T11:49:48.810Z,99664.42
2023-07-03T11:52:54.572Z,99655.78
2023-07-03T11:55:59.098Z,99663.30
2023-07-03T11:59:06.043Z,99658.43
2023-07-03T12:02:34.979Z,99651.03
2023-07-03T12:06:00.174Z,99645.26
2023-07-03T12:09:06.697Z,99642.27
2023-07-03T12:12:21.225Z,99638.03
2023-07-03T12:15:28.260Z,99637.68
2023-07-03T12:18:34.114Z,99639.80
2023-07-03T12:21:39.570Z,99641.91
2023-07-03T12:24:47.177Z,99638.98
2023-07-03T12:27:54.074Z,99632.91
2023-07-03T12:30:59.154Z,99637.50
2023-07-03T12:34:14.663Z,99633.72
2023-07-03T12:37:24.272Z,99629.31
2023-07-03T12:40:31.849Z,99623.49
2023-07-03T12:43:39.191Z,99625.47
2023-07-03T12:46:50.461Z,99622.20
2023-07-03T12:50:08.211Z,99623.06
2023-07-03T12:53:15.768Z,99624.98
2023-07-03T12:56:23.180Z,99626.52
2023-07-03T12:59:34.676Z,99627.84
2023-07-03T13:02:44.205Z,99628.05
2023-07-03T13:05:51.180Z,99629.92
2023-07-03T13:09:02.786Z,99639.34
2023-07-03T13:12:11.825Z,99634.69
2023-07-03T13:15:39.623Z,99641.28
2023-07-03T13:18:44.924Z,99636.40
2023-07-03T13:21:51.697Z,99633.56
2023-07-03T13:25:01.275Z,99641.63
2023-07-03T13:28:07.467Z,99644.12
2023-07-03T13:31:38.121Z,99642.50
2023-07-03T13:34:37.081Z,99641.22
2023-07-03T13:37:51.304Z,99643.69
2023-07-03T13:40:58.013Z,99645.70
2023-07-03T13:44:07.756Z,99647.36
2023-07-03T13:47:12.054Z,99647.16
2023-07-03T13:50:20.217Z,99648.22
2023-07-03T13:53:27.143Z,99653.55
2023-07-03T13:56:27.094Z,99650.55
2023-07-03T13:59:13.692Z,99641.82
2023-07-03T14:02:06.501Z,99646.91
2023-07-03T14:04:52.275Z,99643.72
2023-07-03T14:07:45.544Z,99642.41
2023-07-03T14:10:37.994Z,99643.46
2023-07-03T14:13:43.922Z,99641.45
2023-07-03T14:16:49.742Z,99642.77
2023-07-03T14:19:58.202Z,99636.86
2023-07-03T14:23:05.871Z,99643.30
2023-07-03T14:26:12.364Z,99638.25
2023-07-03T14:29:17.641Z,99642.53
2023-07-03T14:32:27.238Z,99636.84
2023-07-03T14:35:31.790Z,99644.91
2023-07-03T14:38:38.380Z,99646.36
2023-07-03T14:41:44.123Z,99642.01
2023-07-03T14:44:49.383Z,99640.72
2023-07-03T14:47:55.889Z,99634.36
2023-07-03T14:51:05.935Z,99635.41
2023-07-03T14:54:11.921Z,99636.25
2023-07-03T14:57:17.394Z,99642.51
2023-07-03T15:00:24.886Z,99641.32
2023-07-03T15:03:31.731Z,99633.18
2023-07-03T15:06:38.914Z,99637.25
2023-07-03T15:09:44.121Z,99633.00
2023-07-03T15:12:49.315Z,99633.76
2023-07-03T15:16:02.209Z,99630.55
2023-07-03T15:19:08.208Z,99633.78
2023-07-03T15:22:14.038Z,99639.33
2023-07-03T15:25:19.767Z,99635.61
2023-07-03T15:28:26.256Z,99634.71
2023-07-03T15:31:26.160Z,99646.77
2023-07-03T15:34:17.848Z,99642.92
2023-07-03T15:37:22.813Z,99648.41
2023-07-03T15:40:28.366Z,99648.77
2023-07-03T15:43:33.667Z,99648.91
2023-07-03T15:46:40.402Z,99656.81
2023-07-03T15:49:46.583Z,99664.52
2023-07-03T15:52:52.628Z,99657.52
2023-07-03T15:56:03.022Z,99665.34
2023-07-03T15:59:10.287Z,99664.02
2023-07-03T16:02:15.287Z,99665.34
2023-07-03T16:05:20.179Z,99666.09
2023-07-03T16:08:26.488Z,99665.98
2023-07-03T16:11:33.589Z,99665.15
2023-07-03T16:14:39.748Z,99663.13
2023-07-03T16:17:46.729Z,99661.19
2023-07-03T16:20:55.259Z,99661.52
2023-07-03T16:24:04.384Z,99669.97
2023-07-03T16:27:11.424Z,99669.57
2023-07-03T16:30:17.769Z,99668.98
2023-07-03T16:33:22.880Z,99672.28
2023-07-03T16:36:33.243Z,99675.00
2023-07-03T16:39:38.799Z,99676.59
2023-07-03T16:42:44.727Z,99681.43
2023-07-03T16:45:51.580Z,99690.56
2023-07-03T16:48:59.232Z,99703.61
2023-07-03T16:52:07.362Z,99704.33
2023-07-03T16:55:15.080Z,99704.11
2023-07-03T16:58:21.332Z,99709.97
2023-07-03T17:01:37.010Z,99718.05
2023-07-03T17:04:44.092Z,99721.75
2023-07-03T17:07:49.696Z,99718.87
2023-07-03T17:10:49.317Z,99722.46
2023-07-03T17:13:55.735Z,99719.84
2023-07-03T17:17:03.352Z,99727.41
2023-07-03T17:20:09.285Z,99728.11
2023-07-03T17:23:14.856Z,99724.97
2023-07-03T17:26:20.909Z,99727.22
2023-07-03T17:29:27.316Z,99735.82
2023-07-03T17:32:38.776Z,99737.55
2023-07-03T17:35:46.988Z,99741.67
2023-07-03T17:38:53.627Z,99742.34
2023-07-03T17:42:00.705Z,99744.95
2023-07-03T17:45:06.957Z,99746.45
2023-07-03T17:48:12.498Z,99746.55
2023-07-03T17:51:19.020Z,99747.80
2023-07-03T17:54:26.362Z,99754.31
2023-07-03T17:57:31.611Z,99756.47
2023-07-03T18:00:38.308Z,99757.69
2023-07-03T18:03:44.916Z,99761.39
2023-07-03T18:06:50.242Z,99767.06
2023-07-03T18:09:56.378Z,99772.70
2023-07-03T18:13:03.130Z,99783.95
2023-07-03T18:16:09.084Z,99794.91
2023-07-03T18:19:15.223Z,99803.06
2023-07-03T18:22:21.086Z,99799.59
2023-07-03T18:25:26.722Z,99792.22
2023-07-03T18:28:32.279Z,99792.22
2023-07-03T18:31:38.222Z,99793.72
2023-07-03T18:34:44.043Z,99799.80
2023-07-03T18:37:50.811Z,99802.09
2023-07-03T18:40:57.943Z,99801.57
2023-07-03T18:44:03.590Z,99807.66
2023-07-03T18:47:11.168Z,99809.93
2023-07-03T18:50:10.977Z,99811.29
2023-07-03T18:53:17.158Z,99809.95
2023-07-03T18:56:28.668Z,99805.68
2023-07-03T18:59:35.455Z,99808.38
2023-07-03T19:02:41.069Z,99805.06
2023-07-03T19:05:45.882Z,99801.55
2023-07-03T19:08:52.704Z,99804.19
2023-07-03T19:11:59.654Z,99797.51
2023-07-03T19:15:04.688Z,99805.89
2023-07-03T19:18:11.215Z,99801.11
2023-07-03T19:21:17.331Z,99806.30
2023-07-03T19:24:22.541Z,99807.98
2023-07-03T19:27:28.609Z,99811.65
2023-07-03T19:30:33.576Z,99808.54
2023-07-03T19:33:38.804Z,99820.02
2023-07-03T19:36:45.101Z,99825.63
2023-07-03T19:39:51.706Z,99831.13
2023-07-03T19:42:58.068Z,99834.00
2023-07-03T19:46:04.031Z,99830.41
2023-07-03T19:49:10.967Z,99833.41
2023-07-03T19:52:18.409Z,99831.27
2023-07-03T19:55:24.396Z,99831.91
2023-07-03T19:58:30.018Z,99832.41
2023-07-03T20:01:28.871Z,99824.05
2023-07-03T20:04:35.315Z,99821.32
2023-07-03T20:07:43.242Z,99823.25
2023-07-03T20:10:52.756Z,99827.75
2023-07-03T20:13:58.308Z,99824.42
2023-07-03T20:17:04.564Z,99827.56
2023-07-03T20:20:12.074Z,99827.83
2023-07-03T20:23:17.024Z,99828.08
2023-07-03T20:26:22.394Z,99833.91
2023-07-03T20:29:28.898Z,99835.57
2023-07-03T20:32:35.079Z,99831.17
2023-07-03T20:35:41.134Z,99835.41
2023-07-03T20:38:46.544Z,99834.64
2023-07-03T20:41:52.836Z,99831.25
2023-07-03T20:44:58.443Z,99833.81
2023-07-03T20:48:05.085Z,99835.78
2023-07-03T20:51:12.534Z,99835.22
2023-07-03T20:54:22.058Z,99839.41
2023-07-03T20:57:26.932Z,99844.66
2023-07-03T21:00:33.457Z,99849.99
2023-07-03T21:03:42.202Z,99841.37
2023-07-03T21:06:50.591Z,99845.02
2023-07-03T21:09:58.129Z,99846.13
2023-07-03T21:13:12.355Z,99839.41
2023-07-03T21:16:18.996Z,99839.11
2023-07-03T21:19:26.916Z,99839.41
2023-07-03T21:22:32.672Z,99842.50
2023-07-03T21:25:32.410Z,99843.33
2023-07-03T21:28:19.529Z,99842.20
2023-07-03T21:31:12.514Z,99839.99
2023-07-03T21:33:58.691Z,99839.41
2023-07-03T21:36:51.224Z,99831.61
2023-07-03T21:39:43.864Z,99827.13
2023-07-03T21:42:49.754Z,99831.32
2023-07-03T21:45:55.420Z,99829.33
2023-07-03T21:49:01.256Z,99839.69
2023-07-03T21:52:08.792Z,99838.03
2023-07-03T21:55:15.428Z,99826.56
2023-07-03T21:58:20.953Z,99828.48
2023-07-03T22:01:41.828Z,99834.06
2023-07-03T22:04:47.502Z,99835.09
2023-07-03T22:07:53.743Z,99833.44
2023-07-03T22:11:04.126Z,99838.63
2023-07-03T22:14:10.658Z,99830.56
2023-07-03T22:17:08.480Z,99832.61
2023-07-03T22:20:01.595Z,99834.28
2023-07-03T22:23:07.605Z,99833.71
2023-07-03T22:26:15.475Z,99840.03
2023-07-03T22:29:21.269Z,99837.80
2023-07-03T22:32:30.328Z,99839.74
2023-07-03T22:35:35.897Z,99835.52
2023-07-03T22:38:42.270Z,99846.39
2023-07-03T22:41:47.975Z,99845.75
2023-07-03T22:44:53.233Z,99845.22
2023-07-03T22:47:59.798Z,99839.30
2023-07-03T22:51:09.953Z,99840.14
2023-07-03T22:54:08.448Z,99848.46
2023-07-03T22:57:13.584Z,99847.26
2023-07-03T23:00:21.910Z,99850.94
2023-07-03T23:03:28.006Z,99858.94
2023-07-03T23:06:34.092Z,99859.36
2023-07-03T23:09:43.228Z,99860.73
2023-07-03T23:12:48.567Z,99864.61
2023-07-03T23:15:54.331Z,99866.38
2023-07-03T23:19:01.525Z,99858.35
2023-07-03T23:22:07.303Z,99868.70
2023-07-03T23:25:13.114Z,99872.79
2023-07-03T23:28:19.015Z,99869.97
2023-07-03T23:31:27.988Z,99871.91
2023-07-03T23:34:34.447Z,99875.36
2023-07-03T23:37:41.026Z,99873.66
2023-07-03T23:40:47.625Z,99872.54
2023-07-03T23:43:57.719Z,99871.48
2023-07-03T23:47:03.762Z,99870.28
2023-07-03T23:50:10.823Z,99876.48
2023-07-03T23:53:16.688Z,99873.47
2023-07-03T23:56:17.150Z,99869.30
2023-07-03T23:59:22.178Z,99878.34
